Aérodrome :
LOGIN :

S'inscrire | Disclaimer

   EN    FR    IT 

 










Légende :    VFR   VFR Marginal   IFR   IFR Intensif   IFR Très Intensif
Visi : 
Plafond : 
>= 8 km
>= 3000ft
5 à 8 km
1000 à 3000 ft
1500m à 5 km
500 à 1000 ft
800 à 1500m
200 à 500 ft
< 800m
< 200 ft
Symboles :   Orages  Brouillard  Fortes neiges  Fortes précipitations  Vent > 20 kt
SIGMETs :   Divers  Orages  Givrage  Turbulence  Onde Orograph.  Cendres Volcan.







- Altitude de l'aérodrome : 1090 ft
- Code IATA : CFE
- Voir les cartes d'approche


LFLC - Clermont-Ferrand Auvergne

DERNIER METAR :
  • 251400Z AUTO 20006KT 170V230 8000 RA FEW010/// SCT024/// OVC052/// ///TCU 11/09 Q1007 TEMPO 2000 TSRA BKN035TCU SCT060CB

METARs EXPIRÉS :
  • 251330Z AUTO 22004KT 170V280 9000 RA OVC050/// ///TCU 11/09 Q1007 TEMPO 2000 TSRA BKN035TCU SCT060CB
  • 251300Z AUTO 17006KT 9000 -RA FEW018/// OVC052/// ///TCU 11/10 Q1007 TEMPO 2000 TSRA BKN035TCU SCT060CB
  • 251230Z AUTO 23005KT 5000 RA BR FEW013/// BKN023/// BKN030/// ///TCU 11/09 Q1008 TEMPO 2000 TSRA BKN035TCU SCT060CB
  • 251200Z AUTO 22007KT 5000 RA BR OVC012/// ///TCU 11/09 Q1009 TEMPO BKN035TCU FEW060CB
  • 251130Z AUTO 22005KT 180V260 8000 -RA FEW016/// BKN021/// BKN030/// ///TCU 11/08 Q1009 TEMPO 4000 TSRA BKN035TCU FEW060CB

TAF AMD TAF LFLC
Valide du 25 à 15h jusqu'au 26 à 15h UTC


251426Z 2515/2615 35005KT 9999 FEW010 BKN025
TEMPO 2515/2518 4000 RA BKN008 BKN023TCU FEW040CB
PROB30 2515/2518 VRB10G20KT 2000 TSRA BKN006 BKN020TCU FEW035CB
TEMPO 2518/2524 4000 RA BKN006 BKN015 BKN020 FEW022TCU
PROB40
TEMPO 2600/2606 RA BKN007 FEW020TCU
PROB40
TEMPO 2612/2615 SHRA SCT035TCU BKN040
ATIS : +33 4 73 62 74 38
Pas de NOTAMs connus pour ce terrain.



MET'MAP, la Météo Aéronautique d'un coup d'oeil ! - Copyright ORBIFLY Décembre 2007 - Disclaimer

ORBIFLY MET'MAP TEAM :

Programmation & Développement : Alexandra Zaïnal
Conception & Développement : Baudouin d'Aumeries
Co-Programmation & Développement : Marc-Olivier Méhu
Soutien technique & logistique : Manuel Goepfert

Contact : metmap@orbifly.com




SOURCES & CREDITS :

   NOAA